SBOSBO MLA / LMML
Speedbird OnlineSpeedbird Online MLA / LMML

Malta International Airport
09:13 22°C

Location Malta, Malta
Latitude: 35.857498
Longitude: 14.4775
Web Airport Website | Wikipedia
Altitude 91 Meter / 300 Feet
Distance 2,079 KM / 1,292 Miles
from London.
Time Zone UTC +2 hours (Europe/Malta)
Codes IATA: MLA
ICAO: LMML
Currency £1 equals EUR 1.15
Runways
RunwayLength (m)Surface
052377Asphalt
133544Asphalt
232377Asphalt
313544Asphalt
Radio
TypeDescriptionFrequency
APPAPP128.15
Distance Radar130.975
GroundGround121.6
Leaving123.625
RunwayRunway138.1
Volmet126.8
WeatherWX127.4
Live ATC
METAR LMML 060645Z 05004KT 9999 FEW030 22/16 Q1025 NOSIG
TAF TAF LMML 060500Z 0606/0706 07007KT 9999 SCT030
Weather As Of 06 Oct 2022 09:13
Description Few clouds
Wind 7 km/h from North-East (50°)
Cloud Cover 20%
Precipitation Rain: none, Snow: none
Sunrise 07:00
Sunset 18:39
Lounges La Valette Club , Main Terminal
Rotations During the last 90 days there were
64 flights from LGW
65 flights to LGW


© 2017-2022 Speedbird Online